createdAt,value
2022-09-02T00:01:25.545Z,15.50
2022-09-02T00:03:55.009Z,15.40
2022-09-02T00:06:21.723Z,15.50
2022-09-02T00:08:48.661Z,15.50
2022-09-02T00:11:17.662Z,15.50
2022-09-02T00:13:45.229Z,15.40
2022-09-02T00:16:12.460Z,15.40
2022-09-02T00:18:44.872Z,15.40
2022-09-02T00:21:13.682Z,15.40
2022-09-02T00:23:41.967Z,15.50
2022-09-02T00:26:09.231Z,15.50
2022-09-02T00:28:36.134Z,15.50
2022-09-02T00:31:03.279Z,15.50
2022-09-02T00:33:32.085Z,15.60
2022-09-02T00:36:00.565Z,15.50
2022-09-02T00:38:31.833Z,15.60
2022-09-02T00:40:58.578Z,15.60
2022-09-02T00:43:37.869Z,15.60
2022-09-02T00:46:05.292Z,15.60
2022-09-02T00:48:32.449Z,15.50
2022-09-02T00:51:01.774Z,15.60
2022-09-02T00:53:29.215Z,15.60
2022-09-02T00:55:58.746Z,15.60
2022-09-02T00:58:29.869Z,15.70
2022-09-02T01:00:58.740Z,15.60
2022-09-02T01:03:28.245Z,15.60
2022-09-02T01:05:56.904Z,15.60
2022-09-02T01:08:29.475Z,15.60
2022-09-02T01:10:57.126Z,15.50
2022-09-02T01:13:26.205Z,15.50
2022-09-02T01:15:55.572Z,15.50
2022-09-02T01:18:28.228Z,15.50
2022-09-02T01:20:55.199Z,15.40
2022-09-02T01:23:25.633Z,15.50
2022-09-02T01:25:52.337Z,15.50
2022-09-02T01:28:19.279Z,15.40
2022-09-02T01:30:48.328Z,15.50
2022-09-02T01:33:15.459Z,15.50
2022-09-02T01:35:43.766Z,15.50
2022-09-02T01:38:10.740Z,15.50
2022-09-02T01:40:38.357Z,15.40
2022-09-02T01:43:07.883Z,15.50
2022-09-02T01:45:35.179Z,15.60
2022-09-02T01:48:02.187Z,15.50
2022-09-02T01:50:30.819Z,15.50
2022-09-02T01:52:58.204Z,15.50
2022-09-02T01:55:26.075Z,15.60
2022-09-02T01:57:53.468Z,15.40
2022-09-02T02:00:20.451Z,15.40
2022-09-02T02:02:47.226Z,15.40
2022-09-02T02:05:15.169Z,15.50
2022-09-02T02:07:42.450Z,15.40
2022-09-02T02:10:10.434Z,15.50
2022-09-02T02:12:37.986Z,15.60
2022-09-02T02:15:10.862Z,15.50
2022-09-02T02:17:37.654Z,15.50
2022-09-02T02:20:05.919Z,15.40
2022-09-02T02:22:33.420Z,15.40
2022-09-02T02:25:00.672Z,15.30
2022-09-02T02:27:27.449Z,15.40
2022-09-02T02:29:54.614Z,15.30
2022-09-02T02:32:22.103Z,15.30
2022-09-02T02:34:49.087Z,15.40
2022-09-02T02:37:16.273Z,15.10
2022-09-02T02:39:43.992Z,15.20
2022-09-02T02:42:12.714Z,15.20
2022-09-02T02:44:39.532Z,15.10
2022-09-02T02:47:07.591Z,15.10
2022-09-02T02:49:37.491Z,15.10
2022-09-02T02:52:04.566Z,15.10
2022-09-02T02:54:35.145Z,15.00
2022-09-02T02:57:03.278Z,14.90
2022-09-02T02:59:30.366Z,14.80
2022-09-02T03:01:57.206Z,14.80
2022-09-02T03:04:24.147Z,14.80
2022-09-02T03:06:51.744Z,14.70
2022-09-02T03:09:19.672Z,14.70
2022-09-02T03:11:46.418Z,14.70
2022-09-02T03:14:13.126Z,14.80
2022-09-02T03:16:40.509Z,14.70
2022-09-02T03:19:07.233Z,14.70
2022-09-02T03:21:38.870Z,14.60
2022-09-02T03:24:07.171Z,14.60
2022-09-02T03:26:33.873Z,14.50
2022-09-02T03:29:00.580Z,14.50
2022-09-02T03:31:27.873Z,14.40
2022-09-02T03:33:55.344Z,14.50
2022-09-02T03:36:25.291Z,14.40
2022-09-02T03:38:52.393Z,14.40
2022-09-02T03:41:20.111Z,14.30
2022-09-02T03:43:47.125Z,14.20
2022-09-02T03:46:13.994Z,14.20
2022-09-02T03:48:41.303Z,14.20
2022-09-02T03:51:08.139Z,14.20
2022-09-02T03:53:35.116Z,14.00
2022-09-02T03:56:05.600Z,14.10
2022-09-02T03:58:34.499Z,14.10
2022-09-02T04:01:01.301Z,14.20
2022-09-02T04:03:28.199Z,14.20
2022-09-02T04:05:54.916Z,14.10
2022-09-02T04:08:22.090Z,14.10
2022-09-02T04:10:49.449Z,14.10
2022-09-02T04:13:17.158Z,14.10
2022-09-02T04:15:47.358Z,14.20
2022-09-02T04:18:15.133Z,14.10
2022-09-02T04:20:42.526Z,14.20
2022-09-02T04:23:09.897Z,14.20
2022-09-02T04:25:39.485Z,14.20
2022-09-02T04:28:06.289Z,14.30
2022-09-02T04:30:32.982Z,14.30
2022-09-02T04:33:00.340Z,14.30
2022-09-02T04:35:27.350Z,14.40
2022-09-02T04:37:54.112Z,14.40
2022-09-02T04:40:20.853Z,14.50
2022-09-02T04:42:47.622Z,14.40
2022-09-02T04:45:14.423Z,14.50
2022-09-02T04:47:41.100Z,14.50
2022-09-02T04:50:08.977Z,14.50
2022-09-02T04:52:36.105Z,14.40
2022-09-02T04:55:03.276Z,14.20
2022-09-02T04:57:31.509Z,14.50
2022-09-02T04:59:58.337Z,14.50
2022-09-02T05:02:25.447Z,14.50
2022-09-02T05:04:52.323Z,14.50
2022-09-02T05:07:19.701Z,14.40
2022-09-02T05:09:46.450Z,14.40
2022-09-02T05:12:17.551Z,14.30
2022-09-02T05:14:44.499Z,14.50
2022-09-02T05:17:11.302Z,14.50
2022-09-02T05:19:37.983Z,14.50
2022-09-02T05:22:04.672Z,14.50
2022-09-02T05:24:32.205Z,14.50
2022-09-02T05:26:59.048Z,14.50
2022-09-02T05:29:25.889Z,14.60
2022-09-02T05:31:52.659Z,14.60
2022-09-02T05:34:19.456Z,14.70
2022-09-02T05:36:46.598Z,14.70
2022-09-02T05:39:13.571Z,14.70
2022-09-02T05:41:41.308Z,14.80
2022-09-02T05:44:08.565Z,14.80
2022-09-02T05:46:36.110Z,14.90
2022-09-02T05:49:06.712Z,15.10
2022-09-02T05:51:38.230Z,15.10
2022-09-02T05:54:05.113Z,14.90
2022-09-02T05:56:31.977Z,15.30
2022-09-02T05:58:59.510Z,15.40
2022-09-02T06:01:29.349Z,15.40
2022-09-02T06:03:56.809Z,15.40
2022-09-02T06:06:23.589Z,15.60
2022-09-02T06:08:50.673Z,15.70
2022-09-02T06:11:17.864Z,15.70
2022-09-02T06:13:44.693Z,15.70
2022-09-02T06:16:19.205Z,15.90
2022-09-02T06:18:47.014Z,16.10
2022-09-02T06:21:17.793Z,16.00
2022-09-02T06:23:48.472Z,16.00
2022-09-02T06:26:19.077Z,16.10
2022-09-02T06:28:49.169Z,16.10
2022-09-02T06:31:20.815Z,16.10
2022-09-02T06:33:54.674Z,16.30
2022-09-02T06:36:28.358Z,16.50
2022-09-02T06:39:00.723Z,16.50
2022-09-02T06:41:33.958Z,16.70
2022-09-02T06:44:08.672Z,19.10
2022-09-02T06:46:43.480Z,17.30
2022-09-02T06:49:15.853Z,17.30
2022-09-02T06:51:44.366Z,17.40
2022-09-02T06:54:14.021Z,17.70
2022-09-02T06:56:43.893Z,17.70
2022-09-02T06:59:14.144Z,17.80
2022-09-02T07:01:42.865Z,17.90
2022-09-02T07:04:30.789Z,18.00
2022-09-02T07:07:00.786Z,18.20
2022-09-02T07:09:30.469Z,18.30
2022-09-02T07:12:04.594Z,18.20
2022-09-02T07:14:36.037Z,18.30
2022-09-02T07:17:06.266Z,18.40
2022-09-02T07:19:35.974Z,18.70
2022-09-02T07:22:04.540Z,18.70
2022-09-02T07:24:31.368Z,18.60
2022-09-02T07:26:58.212Z,18.80
2022-09-02T07:29:27.902Z,19.30
2022-09-02T07:31:55.099Z,19.00
2022-09-02T07:34:23.405Z,19.20
2022-09-02T07:36:50.352Z,19.40
2022-09-02T07:39:19.709Z,19.60
2022-09-02T07:41:49.839Z,19.70
2022-09-02T07:44:21.598Z,19.70
2022-09-02T07:46:51.123Z,19.80
2022-09-02T07:49:24.118Z,19.90
2022-09-02T07:51:52.768Z,19.90
2022-09-02T07:54:26.088Z,20.00
2022-09-02T07:56:53.399Z,19.80
2022-09-02T07:59:26.500Z,19.50
2022-09-02T08:01:53.702Z,19.30
2022-09-02T08:04:22.674Z,19.10
2022-09-02T08:06:53.813Z,18.90
2022-09-02T08:09:21.509Z,18.80
2022-09-02T08:11:50.440Z,20.50
2022-09-02T08:14:23.658Z,19.40
2022-09-02T08:16:52.579Z,19.80
2022-09-02T08:19:19.477Z,20.00
2022-09-02T08:21:46.290Z,20.40
2022-09-02T08:24:13.759Z,20.70
2022-09-02T08:26:42.251Z,20.60
2022-09-02T08:29:09.498Z,20.60
2022-09-02T08:31:37.414Z,19.90
2022-09-02T08:34:04.311Z,18.90
2022-09-02T08:36:31.204Z,20.60
2022-09-02T08:38:57.975Z,20.50
2022-09-02T08:41:27.917Z,20.60
2022-09-02T08:43:58.314Z,20.50
2022-09-02T08:46:28.122Z,20.50
2022-09-02T08:48:59.174Z,20.60
2022-09-02T08:51:33.845Z,20.80
2022-09-02T08:54:07.569Z,20.70
2022-09-02T08:56:37.112Z,20.90
2022-09-02T08:59:05.621Z,21.00
2022-09-02T09:01:43.559Z,21.20
2022-09-02T09:04:26.693Z,21.30
2022-09-02T09:07:06.665Z,21.30
2022-09-02T09:09:46.754Z,21.60
2022-09-02T09:12:24.836Z,21.60
2022-09-02T09:15:02.138Z,21.70
2022-09-02T09:17:34.576Z,21.70
2022-09-02T09:20:06.157Z,21.70
2022-09-02T09:22:36.701Z,21.70
2022-09-02T09:25:09.842Z,21.60
2022-09-02T09:27:37.397Z,21.70
2022-09-02T09:30:07.927Z,21.60
2022-09-02T09:32:41.301Z,21.70
2022-09-02T09:35:09.961Z,21.60
2022-09-02T09:37:38.596Z,21.50
2022-09-02T09:40:26.385Z,21.60
2022-09-02T09:42:57.308Z,21.40
2022-09-02T09:45:29.045Z,21.40
2022-09-02T09:48:31.949Z,21.50
2022-09-02T09:51:12.284Z,21.70
2022-09-02T09:53:39.613Z,21.90
2022-09-02T09:56:20.738Z,22.00
2022-09-02T09:58:50.006Z,22.10
2022-09-02T10:01:19.618Z,21.90
2022-09-02T10:03:50.288Z,21.60
2022-09-02T10:06:20.258Z,21.50
2022-09-02T10:08:55.771Z,21.70
2022-09-02T10:11:25.485Z,21.90
2022-09-02T10:14:00.755Z,22.10
2022-09-02T10:16:43.375Z,22.20
2022-09-02T10:19:20.513Z,22.10
2022-09-02T10:22:18.219Z,22.20
2022-09-02T10:25:01.106Z,22.20
2022-09-02T10:27:36.286Z,22.10
2022-09-02T10:30:07.768Z,22.00
2022-09-02T10:32:46.464Z,21.60
2022-09-02T10:35:21.100Z,21.50
2022-09-02T10:38:06.021Z,21.60
2022-09-02T10:40:40.876Z,21.90
2022-09-02T10:43:11.213Z,21.90
2022-09-02T10:45:45.487Z,21.90
2022-09-02T10:48:26.337Z,22.00
2022-09-02T10:50:58.114Z,21.90
2022-09-02T10:53:43.347Z,22.00
2022-09-02T10:56:15.773Z,22.10
2022-09-02T10:58:48.327Z,22.30
2022-09-02T11:01:20.589Z,22.30
2022-09-02T11:04:14.334Z,22.20
2022-09-02T11:07:01.800Z,22.00
2022-09-02T11:09:37.125Z,21.40
2022-09-02T11:12:10.371Z,21.80
2022-09-02T11:14:45.874Z,21.80
2022-09-02T11:17:24.866Z,22.00
2022-09-02T11:19:59.503Z,22.60
2022-09-02T11:22:35.127Z,23.20
2022-09-02T11:25:08.116Z,23.30
2022-09-02T11:27:43.080Z,23.40
2022-09-02T11:30:15.036Z,23.00
2022-09-02T11:32:47.023Z,22.50
2022-09-02T11:35:19.810Z,22.40
2022-09-02T11:37:50.257Z,22.70
2022-09-02T11:40:34.270Z,22.90
2022-09-02T11:43:22.550Z,23.20
2022-09-02T11:46:02.349Z,22.80
2022-09-02T11:49:03.286Z,22.50
2022-09-02T11:51:50.231Z,22.50
2022-09-02T11:54:19.847Z,22.50
2022-09-02T11:56:48.944Z,22.30
2022-09-02T11:59:45.069Z,22.20
2022-09-02T12:02:12.644Z,22.20
2022-09-02T12:04:59.176Z,22.40
2022-09-02T12:07:32.721Z,22.70
2022-09-02T12:10:05.431Z,22.90
2022-09-02T12:13:03.302Z,23.00
2022-09-02T12:15:35.231Z,22.90
2022-09-02T12:18:30.438Z,23.20
2022-09-02T12:21:07.761Z,23.80
2022-09-02T12:24:07.879Z,24.30
2022-09-02T12:27:16.181Z,24.80
2022-09-02T12:29:44.936Z,24.70
2022-09-02T12:32:33.539Z,24.10
2022-09-02T12:35:30.315Z,24.00
2022-09-02T12:38:16.804Z,23.90
2022-09-02T12:40:55.272Z,23.70
2022-09-02T12:43:30.371Z,23.60
2022-09-02T12:46:06.680Z,23.50
2022-09-02T12:48:42.942Z,23.40
2022-09-02T12:51:09.761Z,23.70
2022-09-02T12:53:41.849Z,24.50
2022-09-02T12:56:20.694Z,25.00
2022-09-02T12:58:51.280Z,25.10
2022-09-02T13:01:25.502Z,24.70
2022-09-02T13:04:13.612Z,24.30
2022-09-02T13:06:58.233Z,24.10
2022-09-02T13:09:57.233Z,24.40
2022-09-02T13:13:03.286Z,25.00
2022-09-02T13:15:49.148Z,25.70
2022-09-02T13:19:00.284Z,26.30
2022-09-02T13:21:47.756Z,26.90
2022-09-02T13:24:48.844Z,27.10
2022-09-02T13:28:08.159Z,26.70
2022-09-02T13:31:04.944Z,26.40
2022-09-02T13:33:33.005Z,25.60
2022-09-02T13:36:03.101Z,25.00
2022-09-02T13:38:32.579Z,22.40
2022-09-02T13:40:59.762Z,24.60
2022-09-02T13:43:27.733Z,23.80
2022-09-02T13:45:59.998Z,24.30
2022-09-02T13:48:28.534Z,23.70
2022-09-02T13:50:57.665Z,21.80
2022-09-02T13:53:53.916Z,24.60
2022-09-02T13:56:27.948Z,26.70
2022-09-02T13:58:57.722Z,28.30
2022-09-02T14:01:28.349Z,31.60
2022-09-02T14:03:57.848Z,31.30
2022-09-02T14:06:30.561Z,29.20
2022-09-02T14:09:01.972Z,32.50
2022-09-02T14:11:35.522Z,29.90
2022-09-02T14:14:03.988Z,29.10
2022-09-02T14:16:42.494Z,26.60
2022-09-02T14:19:13.927Z,29.50
2022-09-02T14:21:46.941Z,29.70
2022-09-02T14:24:16.357Z,30.90
2022-09-02T14:26:45.725Z,30.40
2022-09-02T14:29:16.118Z,29.30
2022-09-02T14:31:43.671Z,28.80
2022-09-02T14:34:33.473Z,25.70
2022-09-02T14:37:00.661Z,27.10
2022-09-02T14:39:27.529Z,27.90
2022-09-02T14:41:56.015Z,27.60
2022-09-02T14:44:31.854Z,26.30
2022-09-02T14:47:01.352Z,25.20
2022-09-02T14:49:33.518Z,24.70
2022-09-02T14:52:03.816Z,24.00
2022-09-02T14:54:36.921Z,23.10
2022-09-02T14:57:04.611Z,23.30
2022-09-02T14:59:32.158Z,23.10
2022-09-02T15:02:01.028Z,23.00
2022-09-02T15:04:28.010Z,23.10
2022-09-02T15:06:54.670Z,23.80
2022-09-02T15:09:21.510Z,24.10
2022-09-02T15:11:51.235Z,23.90
2022-09-02T15:14:17.981Z,23.80
2022-09-02T15:16:45.518Z,24.30
2022-09-02T15:19:12.379Z,24.80
2022-09-02T15:21:42.094Z,25.70
2022-09-02T15:24:09.029Z,25.80
2022-09-02T15:26:36.468Z,25.30
2022-09-02T15:29:04.214Z,24.70
2022-09-02T15:31:31.389Z,24.30
2022-09-02T15:33:59.014Z,23.60
2022-09-02T15:36:27.010Z,23.30
2022-09-02T15:38:54.322Z,22.80
2022-09-02T15:41:23.288Z,22.90
2022-09-02T15:43:54.184Z,23.00
2022-09-02T15:46:26.429Z,23.00
2022-09-02T15:48:56.732Z,22.90
2022-09-02T15:51:26.934Z,22.90
2022-09-02T15:53:57.545Z,22.90
2022-09-02T15:56:25.834Z,22.90
2022-09-02T15:59:00.401Z,22.80
2022-09-02T16:01:28.488Z,22.90
2022-09-02T16:03:57.573Z,22.90
2022-09-02T16:06:24.869Z,22.80
2022-09-02T16:08:52.386Z,22.60
2022-09-02T16:11:19.367Z,22.50
2022-09-02T16:13:46.784Z,22.20
2022-09-02T16:16:14.353Z,22.10
2022-09-02T16:18:42.356Z,21.90
2022-09-02T16:21:11.446Z,21.80
2022-09-02T16:23:38.840Z,21.70
2022-09-02T16:26:15.762Z,21.90
2022-09-02T16:28:44.092Z,21.50
2022-09-02T16:31:13.026Z,21.40
2022-09-02T16:33:41.815Z,21.30
2022-09-02T16:36:08.867Z,21.20
2022-09-02T16:38:38.151Z,21.10
2022-09-02T16:41:05.912Z,21.30
2022-09-02T16:43:33.677Z,20.90
2022-09-02T16:46:04.113Z,21.60
2022-09-02T16:48:35.202Z,20.80
2022-09-02T16:51:06.056Z,20.70
2022-09-02T16:53:33.180Z,20.70
2022-09-02T16:56:03.719Z,20.70
2022-09-02T16:58:34.480Z,19.70
2022-09-02T17:01:12.647Z,20.40
2022-09-02T17:03:40.291Z,20.60
2022-09-02T17:06:08.452Z,20.60
2022-09-02T17:08:37.813Z,20.60
2022-09-02T17:11:23.495Z,20.60
2022-09-02T17:13:52.928Z,20.60
2022-09-02T17:16:21.868Z,20.30
2022-09-02T17:18:50.093Z,20.50
2022-09-02T17:21:33.710Z,20.40
2022-09-02T17:24:04.688Z,20.30
2022-09-02T17:26:34.889Z,19.80
2022-09-02T17:29:08.121Z,20.00
2022-09-02T17:31:35.691Z,20.10
2022-09-02T17:34:07.232Z,20.10
2022-09-02T17:36:36.155Z,20.10
2022-09-02T17:39:06.491Z,19.10
2022-09-02T17:41:52.219Z,17.20
2022-09-02T17:44:20.849Z,19.90
2022-09-02T17:46:47.687Z,19.90
2022-09-02T17:49:25.043Z,19.80
2022-09-02T17:51:52.534Z,19.70
2022-09-02T17:54:19.935Z,18.80
2022-09-02T17:57:20.537Z,17.80
2022-09-02T18:02:37.687Z,19.40
2022-09-02T18:05:14.662Z,19.30
2022-09-02T18:07:49.900Z,19.40
2022-09-02T18:10:17.728Z,19.30
2022-09-02T18:12:44.575Z,19.20
2022-09-02T18:15:16.265Z,19.20
2022-09-02T18:17:47.531Z,19.10
2022-09-02T18:20:22.624Z,19.10
2022-09-02T18:23:22.419Z,19.00
2022-09-02T18:25:57.499Z,18.90
2022-09-02T18:28:39.296Z,18.90
2022-09-02T18:31:16.724Z,18.80
2022-09-02T18:34:11.042Z,18.70
2022-09-02T18:36:48.415Z,18.70
2022-09-02T18:39:27.486Z,18.60
2022-09-02T18:42:16.021Z,18.80
2022-09-02T18:44:51.552Z,18.60
2022-09-02T18:47:21.448Z,18.60
2022-09-02T18:49:53.268Z,18.50
2022-09-02T18:52:25.763Z,18.50
2022-09-02T18:55:00.494Z,18.40
2022-09-02T18:57:33.554Z,18.30
2022-09-02T19:00:04.109Z,18.30
2022-09-02T19:02:40.647Z,18.30
2022-09-02T19:05:11.285Z,18.20
2022-09-02T19:07:56.824Z,18.20
2022-09-02T19:10:24.077Z,17.70
2022-09-02T19:12:51.213Z,18.10
2022-09-02T19:15:18.688Z,17.90
2022-09-02T19:17:46.104Z,18.00
2022-09-02T19:20:13.896Z,18.00
2022-09-02T19:22:44.112Z,17.90
2022-09-02T19:25:14.468Z,17.90
2022-09-02T19:27:43.774Z,17.80
2022-09-02T19:30:13.952Z,17.80
2022-09-02T19:32:43.942Z,17.80
2022-09-02T19:35:16.165Z,17.70
2022-09-02T19:37:44.945Z,17.70
2022-09-02T19:40:14.286Z,17.60
2022-09-02T19:42:41.634Z,17.60
2022-09-02T19:45:11.899Z,17.50
2022-09-02T19:50:29.263Z,17.50
2022-09-02T19:52:56.050Z,17.40
2022-09-02T19:55:23.339Z,17.50
2022-09-02T19:57:51.058Z,17.40
2022-09-02T20:00:17.984Z,17.20
2022-09-02T20:02:44.853Z,17.60
2022-09-02T20:05:13.294Z,17.30
2022-09-02T20:07:41.127Z,17.40
2022-09-02T20:10:09.699Z,17.30
2022-09-02T20:12:36.790Z,17.20
2022-09-02T20:15:04.644Z,17.20
2022-09-02T20:17:32.222Z,17.30
2022-09-02T20:20:00.689Z,17.20
2022-09-02T20:22:28.193Z,17.10
2022-09-02T20:24:56.757Z,17.10
2022-09-02T20:27:36.091Z,17.10
2022-09-02T20:30:07.814Z,17.00
2022-09-02T20:32:52.231Z,17.00
2022-09-02T20:35:43.443Z,17.00
2022-09-02T20:38:35.980Z,16.90
2022-09-02T20:41:11.647Z,16.80
2022-09-02T20:44:12.486Z,16.80
2022-09-02T20:46:57.647Z,16.70
2022-09-02T20:49:39.054Z,16.70
2022-09-02T20:52:12.528Z,16.70
2022-09-02T20:54:44.255Z,16.70
2022-09-02T20:57:28.235Z,16.70
2022-09-02T21:00:04.308Z,16.70
2022-09-02T21:02:35.058Z,16.70
2022-09-02T21:05:11.622Z,16.60
2022-09-02T21:07:44.764Z,16.60
2022-09-02T21:10:16.948Z,16.60
2022-09-02T21:12:52.060Z,16.60
2022-09-02T21:15:27.566Z,16.50
2022-09-02T21:18:00.591Z,16.50
2022-09-02T21:20:38.470Z,16.50
2022-09-02T21:23:14.699Z,16.40
2022-09-02T21:25:50.437Z,16.40
2022-09-02T21:28:23.453Z,16.30
2022-09-02T21:30:57.438Z,16.20
2022-09-02T21:33:27.864Z,16.30
2022-09-02T21:35:57.436Z,16.20
2022-09-02T21:38:30.782Z,16.20
2022-09-02T21:41:08.583Z,16.20
2022-09-02T21:43:47.197Z,16.20
2022-09-02T21:46:26.366Z,16.20
2022-09-02T21:48:58.894Z,16.20
2022-09-02T21:51:33.291Z,16.20
2022-09-02T21:54:20.026Z,16.10
2022-09-02T21:57:02.612Z,16.10
2022-09-02T21:59:48.523Z,16.00
2022-09-02T22:02:25.045Z,16.00
2022-09-02T22:05:00.373Z,16.10
2022-09-02T22:07:33.702Z,16.00
2022-09-02T22:10:08.343Z,15.80
2022-09-02T22:12:39.013Z,15.90
2022-09-02T22:15:14.348Z,15.80
2022-09-02T22:17:50.605Z,15.70
2022-09-02T22:20:21.031Z,15.70
2022-09-02T22:22:59.900Z,15.70
2022-09-02T22:25:29.580Z,15.60
2022-09-02T22:28:09.028Z,15.60
2022-09-02T22:30:42.616Z,15.60
2022-09-02T22:33:13.827Z,15.60
2022-09-02T22:35:51.045Z,15.60
2022-09-02T22:38:25.975Z,15.50
2022-09-02T22:40:57.046Z,15.50
2022-09-02T22:43:30.654Z,15.50
2022-09-02T22:46:27.160Z,15.60
2022-09-02T22:49:17.142Z,15.60
2022-09-02T22:52:07.924Z,15.50
2022-09-02T22:54:34.695Z,15.50
2022-09-02T22:57:09.850Z,15.40
2022-09-02T22:59:48.222Z,15.40
2022-09-02T23:02:21.934Z,15.40
2022-09-02T23:05:31.969Z,15.40
2022-09-02T23:07:58.722Z,15.40
2022-09-02T23:10:26.302Z,15.40
2022-09-02T23:12:59.770Z,15.30
2022-09-02T23:15:33.774Z,15.30
2022-09-02T23:18:09.783Z,15.30
2022-09-02T23:20:45.724Z,15.30
2022-09-02T23:23:37.024Z,15.30
2022-09-02T23:26:15.947Z,15.30
2022-09-02T23:28:56.403Z,15.20
2022-09-02T23:31:33.046Z,15.20
2022-09-02T23:34:13.010Z,15.20
2022-09-02T23:36:51.583Z,15.30
2022-09-02T23:39:39.033Z,15.20
2022-09-02T23:42:06.766Z,15.20
2022-09-02T23:44:34.001Z,15.20
2022-09-02T23:47:14.012Z,15.20
2022-09-02T23:49:51.353Z,15.10
2022-09-02T23:52:25.991Z,15.10
2022-09-02T23:55:03.540Z,15.10
2022-09-02T23:57:47.506Z,15.10
